Time;durP1;ratioP1;P1;durP2;ratioP2;P2;SDS_P1;SDS_P2;PMS_P1;PMS_P2;Temp;Humidity;BMP_temperature;BMP_pressure;BME280_temperature;BME280_humidity;BME280_pressure;Samples;Min_cycle;Max_cycle;Signal;HPM_P1;HPM_P2
2022/01/20 00:01:55;;;;;;;;;;;;;;;;;;5105574;28;19927;-76
2022/01/20 00:04:36;;;;;;;;;;;;;;;;;;5096290;28;20015;-75
2022/01/20 00:09:48;;;;;;;;;;;;;;;;;;5116378;28;20030;-75
2022/01/20 00:26:03;;;;;;;;;;;;;;;;;;5116183;28;19922;-75
2022/01/20 00:28:43;;;;;;;;;;;;;;;;;;5116147;28;19916;-75
2022/01/20 00:33:48;;;;;;;;;;;;;;;;;;5116049;28;19919;-75
2022/01/20 00:38:43;;;;;;;;;;;;;;;;;;5115789;28;19967;-76
2022/01/20 00:41:14;;;;;;;;;;;;;;;;;;5148966;27;19968;-76
2022/01/20 00:43:41;;;;;;;;;;;;;;;;;;5116087;27;19916;-75
2022/01/20 00:46:06;;;;;;;;;;;;;;;;;;5115737;28;19945;-75
2022/01/20 00:48:31;;;;;;;;;;;;;;;;;;5115608;28;19916;-76
2022/01/20 00:50:57;;;;;;;;;;;;;;;;;;5115608;28;19923;-76
2022/01/20 00:53:22;;;;;;;;;;;;;;;;;;5115580;28;19960;-76
2022/01/20 00:55:48;;;;;;;;;;;;;;;;;;5114199;28;19916;-75
2022/01/20 00:58:13;;;;;;;;;;;;;;;;;;5115340;28;19959;-75
2022/01/20 01:00:39;;;;;;;;;;;;;;;;;;5114926;28;19920;-75
2022/01/20 01:03:04;;;;;;;;;;;;;;;;;;5115428;28;19991;-75
2022/01/20 01:05:29;;;;;;;;;;;;;;;;;;5115158;28;19926;-75
2022/01/20 01:07:56;;;;;;;;;;;;;;;;;;5115293;28;20397;-75
2022/01/20 01:10:24;;;;;;;;;;;;;;;;;;5115175;28;19916;-76
2022/01/20 01:12:56;;;;;;;;;;;;;;;;;;5115185;28;19927;-75
2022/01/20 01:15:26;;;;;;;;;;;;;;;;;;5115162;28;19919;-75
2022/01/20 01:23:20;;;;;;;;;;;;;;;;;;5115324;28;19927;-75
2022/01/20 01:25:46;;;;;;;;;;;;;;;;;;5114924;28;19915;-76
2022/01/20 01:28:11;;;;;;;;;;;;;;;;;;5114975;28;20014;-76
2022/01/20 01:33:21;;;;;;;;;;;;;;;;;;5115087;28;20049;-75
2022/01/20 01:35:55;;;;;;;;;;;;;;;;;;5114742;28;19916;-75
2022/01/20 01:41:11;;;;;;;;;;;;;;;;;;5115002;28;19922;-75
2022/01/20 01:43:39;;;;;;;;;;;;;;;;;;5114574;28;19916;-75
2022/01/20 01:46:05;;;;;;;;;;;;;;;;;;5114601;28;19923;-75
2022/01/20 01:48:31;;;;;;;;;;;;;;;;;;5114625;28;19916;-75
2022/01/20 01:50:59;;;;;;;;;;;;;;;;;;5114773;28;20007;-75
2022/01/20 01:53:24;;;;;;;;;;;;;;;;;;5114459;28;20010;-75
2022/01/20 01:55:50;;;;;;;;;;;;;;;;;;5114479;28;19955;-75
2022/01/20 01:58:15;;;;;;;;;;;;;;;;;;5114535;28;19964;-74
2022/01/20 02:00:42;;;;;;;;;;;;;;;;;;5114401;28;19916;-75
2022/01/20 02:03:08;;;;;;;;;;;;;;;;;;5114386;28;19920;-75
2022/01/20 02:05:37;;;;;;;;;;;;;;;;;;5114262;28;20330;-75
2022/01/20 02:18:49;;;;;;;;;;;;;;;;;;5114568;28;19976;-75
2022/01/20 02:21:15;;;;;;;;;;;;;;;;;;5113992;28;19976;-75
2022/01/20 02:23:40;;;;;;;;;;;;;;;;;;5114172;28;19920;-75
2022/01/20 02:26:06;;;;;;;;;;;;;;;;;;5114158;28;19916;-75
2022/01/20 02:28:31;;;;;;;;;;;;;;;;;;5114120;28;19927;-75
2022/01/20 02:30:57;;;;;;;;;;;;;;;;;;5113016;28;20360;-75
2022/01/20 02:33:25;;;;;;;;;;;;;;;;;;5114161;28;19916;-75
2022/01/20 02:35:52;;;;;;;;;;;;;;;;;;5114074;28;19923;-75
2022/01/20 02:38:25;;;;;;;;;;;;;;;;;;5114096;28;20011;-75
2022/01/20 02:46:19;;;;;;;;;;;;;;;;;;5114276;28;20003;-75
2022/01/20 02:48:44;;;;;;;;;;;;;;;;;;5113773;28;20348;-75
2022/01/20 02:51:10;;;;;;;;;;;;;;;;;;5113905;28;19972;-75
2022/01/20 02:53:35;;;;;;;;;;;;;;;;;;5113781;28;19976;-76
2022/01/20 02:56:00;;;;;;;;;;;;;;;;;;5113858;28;19968;-75
2022/01/20 02:58:26;;;;;;;;;;;;;;;;;;5112253;28;19920;-75
2022/01/20 03:00:51;;;;;;;;;;;;;;;;;;5113912;28;20387;-76
2022/01/20 03:03:17;;;;;;;;;;;;;;;;;;5113774;28;19915;-73
2022/01/20 03:05:42;;;;;;;;;;;;;;;;;;5113893;28;19916;-75
2022/01/20 03:08:08;;;;;;;;;;;;;;;;;;5113709;28;19961;-74
2022/01/20 03:10:33;;;;;;;;;;;;;;;;;;5113804;28;19939;-76
2022/01/20 03:12:58;;;;;;;;;;;;;;;;;;5113728;28;20382;-76
2022/01/20 03:15:24;;;;;;;;;;;;;;;;;;5113710;28;19919;-75
2022/01/20 03:17:50;;;;;;;;;;;;;;;;;;5113873;28;19923;-76
2022/01/20 03:20:16;;;;;;;;;;;;;;;;;;5113683;28;20019;-75
2022/01/20 03:22:41;;;;;;;;;;;;;;;;;;5115751;28;19916;-75
2022/01/20 03:25:07;;;;;;;;;;;;;;;;;;5116288;28;19916;-75
2022/01/20 03:27:33;;;;;;;;;;;;;;;;;;5125155;28;19927;-75
2022/01/20 03:29:58;;;;;;;;;;;;;;;;;;5119882;28;20291;-75
2022/01/20 03:32:24;;;;;;;;;;;;;;;;;;5117531;28;19916;-75
2022/01/20 03:34:49;;;;;;;;;;;;;;;;;;5117328;28;20080;-75
2022/01/20 03:37:15;;;;;;;;;;;;;;;;;;5117023;28;19985;-75
2022/01/20 03:39:40;;;;;;;;;;;;;;;;;;5117075;28;19963;-75
2022/01/20 03:42:05;;;;;;;;;;;;;;;;;;5117331;28;19955;-75
2022/01/20 03:44:31;;;;;;;;;;;;;;;;;;5116945;27;19923;-75
2022/01/20 03:47:00;;;;;;;;;;;;;;;;;;5116869;28;19916;-74
2022/01/20 03:49:37;;;;;;;;;;;;;;;;;;5116765;28;19923;-75
2022/01/20 03:52:03;;;;;;;;;;;;;;;;;;5117117;28;19950;-75
2022/01/20 03:54:28;;;;;;;;;;;;;;;;;;5116856;28;20006;-76
2022/01/20 03:56:54;;;;;;;;;;;;;;;;;;5116551;28;19954;-76
2022/01/20 03:59:19;;;;;;;;;;;;;;;;;;5116505;28;19916;-76
2022/01/20 04:01:45;;;;;;;;;;;;;;;;;;5110115;28;19973;-75
2022/01/20 04:04:10;;;;;;;;;;;;;;;;;;5108945;28;20018;-76
2022/01/20 04:06:36;;;;;;;;;;;;;;;;;;5099794;28;20368;-76
2022/01/20 04:09:01;;;;;;;;;;;;;;;;;;5107375;28;19923;-76
2022/01/20 04:11:28;;;;;;;;;;;;;;;;;;5116387;28;19961;-76
2022/01/20 04:13:54;;;;;;;;;;;;;;;;;;5107401;28;20364;-76
2022/01/20 04:16:33;;;;;;;;;;;;;;;;;;5095991;28;20378;-76
2022/01/20 04:18:59;;;;;;;;;;;;;;;;;;5103147;28;19927;-75
2022/01/20 04:21:26;;;;;;;;;;;;;;;;;;5115982;28;20360;-76
2022/01/20 04:23:52;;;;;;;;;;;;;;;;;;5116088;28;19933;-76
2022/01/20 04:26:18;;;;;;;;;;;;;;;;;;5116305;28;20419;-76
2022/01/20 04:28:43;;;;;;;;;;;;;;;;;;5116065;28;19919;-76
2022/01/20 04:31:09;;;;;;;;;;;;;;;;;;5116255;28;20036;-75
2022/01/20 04:33:34;;;;;;;;;;;;;;;;;;5114634;28;20287;-75
2022/01/20 04:36:00;;;;;;;;;;;;;;;;;;5115486;27;20454;-76
2022/01/20 04:38:26;;;;;;;;;;;;;;;;;;5115884;28;19915;-76
2022/01/20 04:40:51;;;;;;;;;;;;;;;;;;5113231;28;19968;-76
2022/01/20 04:43:17;;;;;;;;;;;;;;;;;;5099138;28;20007;-76
2022/01/20 04:45:45;;;;;;;;;;;;;;;;;;5107997;28;20425;-76
2022/01/20 04:58:56;;;;;;;;;;;;;;;;;;5096677;28;19926;-76
2022/01/20 05:01:21;;;;;;;;;;;;;;;;;;5109869;28;20014;-75
2022/01/20 05:03:47;;;;;;;;;;;;;;;;;;5103480;28;19916;-76
2022/01/20 05:06:12;;;;;;;;;;;;;;;;;;5100467;28;20284;-75
2022/01/20 05:08:38;;;;;;;;;;;;;;;;;;5104692;28;19943;-76
2022/01/20 05:11:04;;;;;;;;;;;;;;;;;;5098961;28;19923;-75
2022/01/20 05:13:35;;;;;;;;;;;;;;;;;;5107559;28;19931;-75
2022/01/20 05:16:01;;;;;;;;;;;;;;;;;;5110930;28;19924;-76
2022/01/20 05:18:26;;;;;;;;;;;;;;;;;;5097824;28;19919;-76
2022/01/20 05:20:52;;;;;;;;;;;;;;;;;;5094099;28;19916;-75
2022/01/20 05:23:17;;;;;;;;;;;;;;;;;;5094676;28;20017;-75
2022/01/20 05:25:43;;;;;;;;;;;;;;;;;;5094878;28;19922;-76
2022/01/20 05:28:08;;;;;;;;;;;;;;;;;;5094616;28;19963;-75
2022/01/20 05:30:34;;;;;;;;;;;;;;;;;;5094624;28;20010;-75
2022/01/20 05:33:00;;;;;;;;;;;;;;;;;;5094433;28;19926;-76
2022/01/20 05:35:26;;;;;;;;;;;;;;;;;;5094310;28;19920;-75
2022/01/20 05:37:51;;;;;;;;;;;;;;;;;;5094458;28;19924;-75
2022/01/20 05:40:17;;;;;;;;;;;;;;;;;;5094413;28;19920;-75
2022/01/20 05:42:42;;;;;;;;;;;;;;;;;;5094354;28;20334;-75
2022/01/20 05:45:08;;;;;;;;;;;;;;;;;;5094296;28;19999;-75
2022/01/20 05:47:37;;;;;;;;;;;;;;;;;;5093673;28;19970;-76
2022/01/20 05:50:03;;;;;;;;;;;;;;;;;;5094190;28;19923;-75
2022/01/20 05:52:28;;;;;;;;;;;;;;;;;;5094168;28;19912;-75
2022/01/20 05:54:54;;;;;;;;;;;;;;;;;;5094159;28;19922;-76
2022/01/20 05:57:19;;;;;;;;;;;;;;;;;;5094012;28;19924;-76
2022/01/20 05:59:44;;;;;;;;;;;;;;;;;;5093993;28;20072;-76
2022/01/20 06:02:27;;;;;;;;;;;;;;;;;;5094079;28;19967;-76
2022/01/20 06:04:53;;;;;;;;;;;;;;;;;;5094359;28;20023;-76
2022/01/20 06:07:20;;;;;;;;;;;;;;;;;;5094133;28;20403;-75
2022/01/20 06:09:45;;;;;;;;;;;;;;;;;;5094209;28;20360;-76
2022/01/20 06:12:10;;;;;;;;;;;;;;;;;;5093936;28;19923;-76
2022/01/20 06:14:36;;;;;;;;;;;;;;;;;;5094012;28;19912;-77
2022/01/20 06:17:01;;;;;;;;;;;;;;;;;;5093827;28;19923;-76
2022/01/20 06:19:27;;;;;;;;;;;;;;;;;;5093694;28;19986;-74
2022/01/20 06:21:52;;;;;;;;;;;;;;;;;;5093819;28;20421;-74
2022/01/20 06:24:18;;;;;;;;;;;;;;;;;;5107015;28;19962;-74
2022/01/20 06:26:43;;;;;;;;;;;;;;;;;;5114221;28;19954;-75
2022/01/20 06:29:09;;;;;;;;;;;;;;;;;;5114199;28;19927;-75
2022/01/20 06:31:34;;;;;;;;;;;;;;;;;;5114282;28;20450;-74
2022/01/20 06:34:00;;;;;;;;;;;;;;;;;;5114064;28;20287;-75
2022/01/20 06:36:25;;;;;;;;;;;;;;;;;;5114039;28;20006;-75
2022/01/20 06:38:50;;;;;;;;;;;;;;;;;;5113976;28;19916;-75
2022/01/20 06:41:16;;;;;;;;;;;;;;;;;;5113926;28;20272;-75
2022/01/20 06:43:41;;;;;;;;;;;;;;;;;;5114181;28;19923;-74
2022/01/20 06:46:07;;;;;;;;;;;;;;;;;;5114185;28;19916;-74
2022/01/20 06:48:32;;;;;;;;;;;;;;;;;;5113977;28;20370;-76
2022/01/20 06:50:57;;;;;;;;;;;;;;;;;;5113940;28;20355;-75
2022/01/20 06:53:23;;;;;;;;;;;;;;;;;;5113864;28;19916;-76
2022/01/20 06:55:48;;;;;;;;;;;;;;;;;;5114358;28;20098;-77
2022/01/20 06:58:14;;;;;;;;;;;;;;;;;;5114415;28;19926;-76
2022/01/20 07:00:39;;;;;;;;;;;;;;;;;;5117778;28;20276;-74
2022/01/20 07:03:05;;;;;;;;;;;;;;;;;;5118284;28;19985;-78
2022/01/20 07:05:30;;;;;;;;;;;;;;;;;;5117642;27;19912;-75
2022/01/20 07:07:56;;;;;;;;;;;;;;;;;;5117706;28;20321;-75
2022/01/20 07:10:21;;;;;;;;;;;;;;;;;;5119096;28;19941;-75
2022/01/20 07:12:47;;;;;;;;;;;;;;;;;;5118249;28;19960;-74
2022/01/20 07:15:14;;;;;;;;;;;;;;;;;;5118311;28;19916;-74
2022/01/20 07:17:39;;;;;;;;;;;;;;;;;;5117646;28;20014;-74
2022/01/20 07:20:05;;;;;;;;;;;;;;;;;;5115891;28;20399;-75
2022/01/20 07:22:30;;;;;;;;;;;;;;;;;;5108949;28;19920;-74
2022/01/20 07:24:56;;;;;;;;;;;;;;;;;;5105471;28;20021;-74
2022/01/20 07:27:21;;;;;;;;;;;;;;;;;;5105561;28;19916;-74
2022/01/20 07:29:47;;;;;;;;;;;;;;;;;;5111448;28;19965;-75
2022/01/20 07:32:12;;;;;;;;;;;;;;;;;;5105446;28;19916;-74
2022/01/20 07:34:38;;;;;;;;;;;;;;;;;;5096522;28;20427;-75
2022/01/20 07:37:04;;;;;;;;;;;;;;;;;;5100675;28;19924;-75
2022/01/20 07:39:29;;;;;;;;;;;;;;;;;;5115253;28;20007;-75
2022/01/20 07:41:55;;;;;;;;;;;;;;;;;;5116265;28;19956;-75
2022/01/20 07:44:21;;;;;;;;;;;;;;;;;;5116343;28;19916;-75
2022/01/20 07:46:47;;;;;;;;;;;;;;;;;;5116494;28;19916;-75
2022/01/20 07:49:12;;;;;;;;;;;;;;;;;;5115833;28;19972;-74
2022/01/20 07:51:38;;;;;;;;;;;;;;;;;;5113993;28;19924;-76
2022/01/20 07:54:03;;;;;;;;;;;;;;;;;;5102347;28;19916;-75
2022/01/20 07:56:29;;;;;;;;;;;;;;;;;;5099157;28;20375;-75
2022/01/20 07:58:54;;;;;;;;;;;;;;;;;;5096298;28;19920;-75
2022/01/20 08:01:22;;;;;;;;;;;;;;;;;;5116445;28;19926;-74
2022/01/20 08:03:47;;;;;;;;;;;;;;;;;;5116180;28;19916;-75
2022/01/20 08:06:12;;;;;;;;;;;;;;;;;;5116362;28;19923;-74
2022/01/20 08:08:38;;;;;;;;;;;;;;;;;;5115580;28;20007;-75
2022/01/20 08:11:04;;;;;;;;;;;;;;;;;;5115357;28;19926;-74
2022/01/20 08:13:29;;;;;;;;;;;;;;;;;;5114005;28;19970;-74
2022/01/20 08:15:54;;;;;;;;;;;;;;;;;;5101119;28;19920;-75
2022/01/20 08:18:20;;;;;;;;;;;;;;;;;;5109706;28;19923;-74
2022/01/20 08:20:45;;;;;;;;;;;;;;;;;;5116230;28;20399;-74
2022/01/20 08:23:11;;;;;;;;;;;;;;;;;;5116110;28;20410;-75
2022/01/20 08:25:36;;;;;;;;;;;;;;;;;;5114232;28;20355;-74
2022/01/20 08:28:02;;;;;;;;;;;;;;;;;;5110101;28;20356;-74
2022/01/20 08:30:27;;;;;;;;;;;;;;;;;;5115187;28;19923;-74
2022/01/20 08:32:53;;;;;;;;;;;;;;;;;;5114860;28;20375;-74
2022/01/20 08:35:19;;;;;;;;;;;;;;;;;;5114909;28;19916;-74
2022/01/20 08:37:45;;;;;;;;;;;;;;;;;;5113782;28;20458;-74
2022/01/20 08:40:12;;;;;;;;;;;;;;;;;;5115551;28;19923;-75
2022/01/20 08:42:37;;;;;;;;;;;;;;;;;;5116043;28;20355;-75
2022/01/20 08:45:03;;;;;;;;;;;;;;;;;;5115353;28;19912;-75
2022/01/20 08:47:29;;;;;;;;;;;;;;;;;;5114133;28;19947;-76
2022/01/20 08:49:54;;;;;;;;;;;;;;;;;;5115445;28;19916;-75
2022/01/20 08:52:21;;;;;;;;;;;;;;;;;;5115429;28;19947;-76
2022/01/20 08:54:47;;;;;;;;;;;;;;;;;;5115714;28;20348;-75
2022/01/20 08:57:15;;;;;;;;;;;;;;;;;;5115322;28;19919;-75
2022/01/20 08:59:42;;;;;;;;;;;;;;;;;;5114590;28;19930;-76
2022/01/20 09:02:08;;;;;;;;;;;;;;;;;;5114706;28;19916;-76
2022/01/20 09:04:33;;;;;;;;;;;;;;;;;;5113696;28;20360;-76
2022/01/20 09:06:59;;;;;;;;;;;;;;;;;;5115411;28;19927;-76
2022/01/20 09:09:24;;;;;;;;;;;;;;;;;;5114964;28;19912;-76
2022/01/20 09:17:22;;;;;;;;;;;;;;;;;;5115470;28;19922;-76
2022/01/20 09:19:48;;;;;;;;;;;;;;;;;;5113682;28;20395;-76
2022/01/20 09:22:14;;;;;;;;;;;;;;;;;;5114690;28;20358;-76
2022/01/20 09:24:39;;;;;;;;;;;;;;;;;;5113620;28;19923;-75
2022/01/20 09:27:05;;;;;;;;;;;;;;;;;;5114537;28;20374;-75
2022/01/20 09:29:31;;;;;;;;;;;;;;;;;;5114564;28;19923;-75
2022/01/20 09:31:56;;;;;;;;;;;;;;;;;;5114774;28;19912;-75
2022/01/20 09:34:24;;;;;;;;;;;;;;;;;;5113275;28;19922;-75
2022/01/20 09:36:49;;;;;;;;;;;;;;;;;;5114588;28;19916;-76
2022/01/20 09:39:15;;;;;;;;;;;;;;;;;;5114442;28;19916;-75
2022/01/20 09:41:40;;;;;;;;;;;;;;;;;;5114726;28;19923;-75
2022/01/20 09:44:06;;;;;;;;;;;;;;;;;;5114389;28;19912;-74
2022/01/20 09:46:32;;;;;;;;;;;;;;;;;;5114688;28;20006;-74
2022/01/20 09:48:57;;;;;;;;;;;;;;;;;;5114393;28;19911;-74
2022/01/20 09:51:23;;;;;;;;;;;;;;;;;;5114495;28;19916;-75
2022/01/20 09:53:50;;;;;;;;;;;;;;;;;;5114592;28;19950;-74
2022/01/20 09:56:15;;;;;;;;;;;;;;;;;;5114328;28;20424;-75
2022/01/20 09:58:41;;;;;;;;;;;;;;;;;;5112924;28;19924;-75
2022/01/20 10:01:09;;;;;;;;;;;;;;;;;;5113598;28;20470;-74
2022/01/20 10:03:36;;;;;;;;;;;;;;;;;;5113987;28;19924;-74
2022/01/20 10:06:01;;;;;;;;;;;;;;;;;;5114330;28;20006;-75
2022/01/20 10:08:27;;;;;;;;;;;;;;;;;;5114145;28;20394;-75
2022/01/20 10:10:58;;;;;;;;;;;;;;;;;;5113987;28;20291;-75
2022/01/20 10:13:25;;;;;;;;;;;;;;;;;;5114118;28;19915;-74
2022/01/20 10:16:01;;;;;;;;;;;;;;;;;;5114046;28;19947;-75
2022/01/20 10:18:28;;;;;;;;;;;;;;;;;;5114056;28;20350;-74
2022/01/20 10:21:01;;;;;;;;;;;;;;;;;;5112641;28;19915;-75
2022/01/20 10:23:32;;;;;;;;;;;;;;;;;;5113881;28;19921;-75
2022/01/20 10:26:05;;;;;;;;;;;;;;;;;;5113994;28;19911;-75
2022/01/20 10:28:30;;;;;;;;;;;;;;;;;;5114057;28;19955;-75
2022/01/20 10:30:57;;;;;;;;;;;;;;;;;;5113848;28;19958;-75
2022/01/20 10:33:22;;;;;;;;;;;;;;;;;;5115267;28;19954;-75
2022/01/20 10:35:48;;;;;;;;;;;;;;;;;;5118212;28;20339;-75
2022/01/20 10:38:15;;;;;;;;;;;;;;;;;;5118043;28;19959;-75
2022/01/20 10:40:56;;;;;;;;;;;;;;;;;;5117903;28;19930;-75
2022/01/20 10:43:26;;;;;;;;;;;;;;;;;;5117842;27;19915;-75
2022/01/20 10:46:05;;;;;;;;;;;;;;;;;;5117865;28;19916;-75
2022/01/20 10:48:31;;;;;;;;;;;;;;;;;;5117838;28;19916;-75
2022/01/20 10:50:56;;;;;;;;;;;;;;;;;;5117622;28;19916;-74
2022/01/20 10:53:22;;;;;;;;;;;;;;;;;;5117605;28;20264;-74
2022/01/20 10:55:48;;;;;;;;;;;;;;;;;;5117838;28;19953;-74
2022/01/20 10:58:23;;;;;;;;;;;;;;;;;;5117470;28;20332;-74
2022/01/20 11:00:52;;;;;;;;;;;;;;;;;;5117665;28;19920;-75
2022/01/20 11:03:18;;;;;;;;;;;;;;;;;;5117479;28;19916;-74
2022/01/20 11:05:48;;;;;;;;;;;;;;;;;;5117654;28;19916;-75
2022/01/20 11:08:14;;;;;;;;;;;;;;;;;;5117510;28;19941;-75
2022/01/20 11:10:42;;;;;;;;;;;;;;;;;;5117307;28;19920;-74
2022/01/20 11:13:09;;;;;;;;;;;;;;;;;;5117453;28;19916;-74
2022/01/20 11:15:34;;;;;;;;;;;;;;;;;;5117483;28;19981;-74
2022/01/20 11:18:00;;;;;;;;;;;;;;;;;;5117569;28;20414;-74
2022/01/20 11:20:28;;;;;;;;;;;;;;;;;;5117460;28;19923;-75
2022/01/20 11:22:55;;;;;;;;;;;;;;;;;;5117287;28;19951;-74
2022/01/20 11:25:22;;;;;;;;;;;;;;;;;;5117132;27;20364;-75
2022/01/20 11:27:50;;;;;;;;;;;;;;;;;;5117384;28;20314;-75
2022/01/20 11:30:17;;;;;;;;;;;;;;;;;;5117169;28;20290;-75
2022/01/20 11:32:45;;;;;;;;;;;;;;;;;;5116981;28;19922;-75
2022/01/20 11:35:11;;;;;;;;;;;;;;;;;;5117209;28;20010;-75
2022/01/20 11:37:38;;;;;;;;;;;;;;;;;;5116890;28;20387;-75
2022/01/20 11:40:20;;;;;;;;;;;;;;;;;;5116735;28;19916;-75
2022/01/20 11:43:15;;;;;;;;;;;;;;;;;;5116845;28;19915;-75
2022/01/20 11:45:43;;;;;;;;;;;;;;;;;;5110901;28;20003;-74
2022/01/20 11:48:16;;;;;;;;;;;;;;;;;;5116700;28;20448;-74
2022/01/20 11:50:43;;;;;;;;;;;;;;;;;;5116764;28;19958;-75
2022/01/20 11:53:17;;;;;;;;;;;;;;;;;;5116490;28;20391;-75
2022/01/20 11:55:47;;;;;;;;;;;;;;;;;;5116739;28;19915;-74
2022/01/20 11:58:13;;;;;;;;;;;;;;;;;;5116244;28;20287;-74
2022/01/20 12:00:39;;;;;;;;;;;;;;;;;;5116293;28;19916;-74
2022/01/20 12:03:12;;;;;;;;;;;;;;;;;;5116498;28;19916;-74
2022/01/20 12:05:38;;;;;;;;;;;;;;;;;;5116257;27;19912;-74
2022/01/20 12:08:12;;;;;;;;;;;;;;;;;;5116243;28;19922;-75
2022/01/20 12:10:40;;;;;;;;;;;;;;;;;;5116343;28;19911;-75
2022/01/20 12:13:07;;;;;;;;;;;;;;;;;;5115901;28;19954;-74
2022/01/20 12:15:32;;;;;;;;;;;;;;;;;;5116042;28;19964;-74
2022/01/20 12:17:58;;;;;;;;;;;;;;;;;;5116093;28;19920;-74
2022/01/20 12:20:24;;;;;;;;;;;;;;;;;;5116006;28;19941;-74
2022/01/20 12:22:50;;;;;;;;;;;;;;;;;;5116904;28;19920;-75
2022/01/20 12:25:22;;;;;;;;;;;;;;;;;;5116237;28;20040;-75
2022/01/20 12:27:48;;;;;;;;;;;;;;;;;;5117290;28;20363;-74
2022/01/20 12:30:18;;;;;;;;;;;;;;;;;;5118641;28;19994;-77
2022/01/20 12:32:54;;;;;;;;;;;;;;;;;;5119181;28;19961;-74
2022/01/20 12:35:21;;;;;;;;;;;;;;;;;;5118464;28;19920;-74
2022/01/20 12:37:46;;;;;;;;;;;;;;;;;;5118426;28;20335;-74
2022/01/20 12:40:22;;;;;;;;;;;;;;;;;;5115598;27;19958;-75
2022/01/20 12:42:48;;;;;;;;;;;;;;;;;;5115756;28;19916;-74
2022/01/20 12:48:10;;;;;;;;;;;;;;;;;;5115997;28;19938;-75
2022/01/20 12:50:36;;;;;;;;;;;;;;;;;;5115332;28;19919;-75
2022/01/20 12:53:01;;;;;;;;;;;;;;;;;;5117385;28;19912;-74
2022/01/20 12:55:26;;;;;;;;;;;;;;;;;;5116983;28;20339;-75
2022/01/20 12:57:59;;;;;;;;;;;;;;;;;;5117104;28;19920;-75
2022/01/20 13:00:24;;;;;;;;;;;;;;;;;;5117065;28;19916;-76
2022/01/20 13:02:50;;;;;;;;;;;;;;;;;;5116692;28;20319;-76
2022/01/20 13:05:16;;;;;;;;;;;;;;;;;;5115264;28;19947;-75
2022/01/20 13:07:50;;;;;;;;;;;;;;;;;;5116583;28;19919;-75
2022/01/20 13:10:32;;;;;;;;;;;;;;;;;;5115142;28;20421;-75
2022/01/20 13:12:57;;;;;;;;;;;;;;;;;;5115455;28;20359;-76
2022/01/20 13:15:24;;;;;;;;;;;;;;;;;;5115240;28;19923;-75
2022/01/20 13:18:01;;;;;;;;;;;;;;;;;;5108403;28;19979;-75
2022/01/20 13:20:26;;;;;;;;;;;;;;;;;;5101682;28;19920;-75
2022/01/20 13:23:09;;;;;;;;;;;;;;;;;;5135703;27;19916;-75
2022/01/20 13:25:39;;;;;;;;;;;;;;;;;;5099126;28;19920;-75
2022/01/20 13:28:09;;;;;;;;;;;;;;;;;;5105470;28;19927;-75
2022/01/20 13:30:39;;;;;;;;;;;;;;;;;;5105131;28;19959;-75
2022/01/20 13:33:06;;;;;;;;;;;;;;;;;;5094263;28;19916;-73
2022/01/20 13:35:39;;;;;;;;;;;;;;;;;;5102320;28;20398;-74
2022/01/20 13:38:05;;;;;;;;;;;;;;;;;;5109977;28;19927;-73
2022/01/20 13:40:31;;;;;;;;;;;;;;;;;;5110117;28;19923;-74
2022/01/20 13:45:39;;;;;;;;;;;;;;;;;;5106693;27;19920;-75
2022/01/20 13:48:05;;;;;;;;;;;;;;;;;;5105061;28;19943;-75
2022/01/20 13:50:32;;;;;;;;;;;;;;;;;;5094162;28;20284;-75
2022/01/20 13:52:59;;;;;;;;;;;;;;;;;;5101262;28;19927;-75
2022/01/20 13:55:31;;;;;;;;;;;;;;;;;;5097352;28;19924;-75
2022/01/20 13:57:58;;;;;;;;;;;;;;;;;;5102266;28;19919;-75
2022/01/20 14:00:31;;;;;;;;;;;;;;;;;;5100995;28;19920;-75
2022/01/20 14:02:57;;;;;;;;;;;;;;;;;;5097997;28;19973;-74
2022/01/20 14:05:27;;;;;;;;;;;;;;;;;;5093689;28;20007;-75
2022/01/20 14:07:52;;;;;;;;;;;;;;;;;;5093481;28;20070;-75
2022/01/20 14:10:18;;;;;;;;;;;;;;;;;;5093855;28;20391;-75
2022/01/20 14:12:43;;;;;;;;;;;;;;;;;;5107282;28;20420;-76
2022/01/20 14:15:09;;;;;;;;;;;;;;;;;;5114094;28;19955;-75
2022/01/20 14:17:37;;;;;;;;;;;;;;;;;;5113898;28;19916;-76
2022/01/20 14:20:07;;;;;;;;;;;;;;;;;;5113929;28;19916;-75
2022/01/20 14:22:33;;;;;;;;;;;;;;;;;;5113947;28;19916;-76
2022/01/20 14:24:59;;;;;;;;;;;;;;;;;;5113887;28;20351;-75
2022/01/20 14:27:24;;;;;;;;;;;;;;;;;;5113826;28;20004;-75
2022/01/20 14:29:50;;;;;;;;;;;;;;;;;;5113789;28;19919;-76
2022/01/20 14:32:15;;;;;;;;;;;;;;;;;;5113867;28;20010;-76
2022/01/20 14:34:41;;;;;;;;;;;;;;;;;;5113856;28;19916;-76
2022/01/20 14:37:07;;;;;;;;;;;;;;;;;;5114144;28;20426;-76
2022/01/20 14:39:33;;;;;;;;;;;;;;;;;;5113634;28;20064;-75
2022/01/20 14:41:59;;;;;;;;;;;;;;;;;;5113907;28;19957;-75
2022/01/20 14:44:24;;;;;;;;;;;;;;;;;;5113736;28;19927;-75
2022/01/20 14:46:50;;;;;;;;;;;;;;;;;;5110229;28;20606;-75
2022/01/20 14:49:16;;;;;;;;;;;;;;;;;;5107952;28;19920;-76
2022/01/20 14:51:41;;;;;;;;;;;;;;;;;;5097591;28;19920;-77
2022/01/20 14:54:06;;;;;;;;;;;;;;;;;;5102628;28;19931;-76
2022/01/20 14:56:32;;;;;;;;;;;;;;;;;;5099130;28;19965;-76
2022/01/20 14:58:57;;;;;;;;;;;;;;;;;;5098367;28;19946;-76
2022/01/20 15:01:23;;;;;;;;;;;;;;;;;;5119210;27;19920;-75
2022/01/20 15:03:48;;;;;;;;;;;;;;;;;;5093293;28;19916;-76
2022/01/20 15:06:14;;;;;;;;;;;;;;;;;;5097022;28;19919;-76
2022/01/20 15:08:39;;;;;;;;;;;;;;;;;;5094118;28;19956;-75
2022/01/20 15:11:04;;;;;;;;;;;;;;;;;;5095129;28;19992;-76
2022/01/20 15:13:30;;;;;;;;;;;;;;;;;;5100881;28;20302;-76
2022/01/20 15:15:55;;;;;;;;;;;;;;;;;;5104498;28;20428;-76
2022/01/20 15:18:21;;;;;;;;;;;;;;;;;;5108826;28;20033;-76
2022/01/20 15:20:46;;;;;;;;;;;;;;;;;;5102680;28;20299;-76
2022/01/20 15:23:12;;;;;;;;;;;;;;;;;;5101090;28;20002;-76
2022/01/20 15:25:37;;;;;;;;;;;;;;;;;;5113676;28;20282;-75
2022/01/20 15:28:03;;;;;;;;;;;;;;;;;;5104037;28;19967;-75
2022/01/20 15:30:29;;;;;;;;;;;;;;;;;;5105103;28;19927;-75
2022/01/20 15:32:54;;;;;;;;;;;;;;;;;;5115786;28;19943;-75
2022/01/20 15:35:19;;;;;;;;;;;;;;;;;;5116942;28;20004;-75
2022/01/20 15:37:45;;;;;;;;;;;;;;;;;;5117770;28;19916;-78
2022/01/20 15:40:12;;;;;;;;;;;;;;;;;;5116891;28;19916;-77
2022/01/20 15:42:38;;;;;;;;;;;;;;;;;;5143953;27;19979;-77
2022/01/20 15:45:06;;;;;;;;;;;;;;;;;;5105157;28;20333;-75
2022/01/20 15:47:32;;;;;;;;;;;;;;;;;;5109059;28;19919;-75
2022/01/20 15:49:57;;;;;;;;;;;;;;;;;;5117637;28;20436;-75
2022/01/20 15:52:23;;;;;;;;;;;;;;;;;;5117054;28;19962;-76
2022/01/20 15:54:49;;;;;;;;;;;;;;;;;;5116689;28;19919;-75
2022/01/20 15:57:15;;;;;;;;;;;;;;;;;;5116489;28;20283;-75
2022/01/20 15:59:40;;;;;;;;;;;;;;;;;;5116438;28;19915;-74
2022/01/20 16:02:07;;;;;;;;;;;;;;;;;;5115320;28;19923;-74
2022/01/20 16:04:32;;;;;;;;;;;;;;;;;;5116506;28;19922;-76
2022/01/20 16:06:57;;;;;;;;;;;;;;;;;;5116665;28;19916;-75
2022/01/20 16:09:23;;;;;;;;;;;;;;;;;;5149516;27;19922;-76
2022/01/20 16:11:48;;;;;;;;;;;;;;;;;;5116264;28;19916;-76
2022/01/20 16:14:14;;;;;;;;;;;;;;;;;;5116281;28;20029;-76
2022/01/20 16:16:39;;;;;;;;;;;;;;;;;;5112425;28;19923;-76
2022/01/20 16:19:08;;;;;;;;;;;;;;;;;;5103674;28;19927;-76
2022/01/20 16:21:35;;;;;;;;;;;;;;;;;;5103578;28;20093;-76
2022/01/20 16:24:00;;;;;;;;;;;;;;;;;;5102130;28;19978;-76
2022/01/20 16:26:26;;;;;;;;;;;;;;;;;;5113268;28;19955;-76
2022/01/20 16:28:51;;;;;;;;;;;;;;;;;;5103107;28;19920;-76
2022/01/20 16:31:16;;;;;;;;;;;;;;;;;;5094742;28;20328;-76
2022/01/20 16:33:42;;;;;;;;;;;;;;;;;;5095505;28;20447;-76
2022/01/20 16:36:07;;;;;;;;;;;;;;;;;;5096729;28;19952;-76
2022/01/20 16:38:33;;;;;;;;;;;;;;;;;;5095583;28;20306;-77
2022/01/20 16:41:01;;;;;;;;;;;;;;;;;;5096132;28;20257;-77
2022/01/20 16:43:27;;;;;;;;;;;;;;;;;;5095346;28;20411;-75
2022/01/20 16:45:53;;;;;;;;;;;;;;;;;;5095880;28;20276;-77
2022/01/20 16:48:19;;;;;;;;;;;;;;;;;;5095514;28;19922;-75
2022/01/20 16:50:45;;;;;;;;;;;;;;;;;;5098655;28;19920;-76
2022/01/20 16:53:10;;;;;;;;;;;;;;;;;;5115921;28;20401;-76
2022/01/20 16:55:36;;;;;;;;;;;;;;;;;;5115649;28;19920;-76
2022/01/20 16:58:01;;;;;;;;;;;;;;;;;;5115616;28;19920;-76
2022/01/20 17:00:27;;;;;;;;;;;;;;;;;;5115460;28;19962;-76
2022/01/20 17:03:04;;;;;;;;;;;;;;;;;;5117290;28;19919;-77
2022/01/20 17:05:30;;;;;;;;;;;;;;;;;;5116628;28;19916;-76
2022/01/20 17:07:56;;;;;;;;;;;;;;;;;;5111118;27;19920;-76
2022/01/20 17:10:22;;;;;;;;;;;;;;;;;;5115609;28;19912;-76
2022/01/20 17:12:47;;;;;;;;;;;;;;;;;;5115527;28;20326;-76
2022/01/20 17:15:13;;;;;;;;;;;;;;;;;;5115276;28;19922;-77
2022/01/20 17:17:38;;;;;;;;;;;;;;;;;;5115179;28;19916;-76
2022/01/20 17:20:04;;;;;;;;;;;;;;;;;;5115063;28;19964;-77
2022/01/20 17:22:30;;;;;;;;;;;;;;;;;;5115292;28;20299;-77
2022/01/20 17:24:55;;;;;;;;;;;;;;;;;;5115244;27;20356;-76
2022/01/20 17:27:20;;;;;;;;;;;;;;;;;;5114126;28;20007;-76
2022/01/20 17:29:46;;;;;;;;;;;;;;;;;;5095992;28;20392;-76
2022/01/20 17:32:11;;;;;;;;;;;;;;;;;;5094882;28;19970;-75
2022/01/20 17:34:37;;;;;;;;;;;;;;;;;;5098990;28;19934;-76
2022/01/20 17:37:02;;;;;;;;;;;;;;;;;;5100813;28;19924;-75
2022/01/20 17:39:28;;;;;;;;;;;;;;;;;;5095588;28;19927;-76
2022/01/20 17:41:53;;;;;;;;;;;;;;;;;;5093932;28;19924;-76
2022/01/20 17:44:19;;;;;;;;;;;;;;;;;;5092855;28;19930;-76
2022/01/20 17:46:45;;;;;;;;;;;;;;;;;;5098883;28;20006;-75
2022/01/20 17:49:10;;;;;;;;;;;;;;;;;;5102467;28;19924;-76
2022/01/20 17:51:37;;;;;;;;;;;;;;;;;;5109527;28;19920;-76
2022/01/20 17:54:03;;;;;;;;;;;;;;;;;;5113490;28;19916;-76